Brownhills, United Kingdom
Current Conditions -  °F | °C
As of 11:20 AM on Saturday 22 Nov 2014 (Local Time) from EGBB Reporting Station
Scattered Clouds Scattered Clouds  
Wind Chill: 55°   Ceiling: Unl
Heat Index: 55°   Visibility: 6mi
Dew Point: 55°   Wind: 6mph
Humidity: 100%   Direction: 170°S
Pressure: 29.85"   Gusts: NA
Location:  52.63°N, 1.93°W
Report Text: EGBB 221120Z 17005KT 9999 SCT008 13/13 Q1011
Loading
Personal Weather Stations






























Interactive Weather Map New forecast layout! Learn more

10-Day Weather Forecast

Advertisements
Track Severe Weather on mobile